sensor_id;sensor_type;location;lat;lon;timestamp;P1;durP1;ratioP1;P2;durP2;ratioP2
17818;SDS011;9034;50.284;19.310;2022-10-16T00:00:46;52.85;;;32.03;;
17818;SDS011;9034;50.284;19.310;2022-10-16T00:01:51;34.53;;;22.88;;
17818;SDS011;9034;50.284;19.310;2022-10-16T00:02:55;45.60;;;28.15;;
17818;SDS011;9034;50.284;19.310;2022-10-16T00:03:59;46.95;;;28.52;;
17818;SDS011;9034;50.284;19.310;2022-10-16T00:05:05;47.65;;;27.50;;
17818;SDS011;9034;50.284;19.310;2022-10-16T00:06:08;56.30;;;32.50;;
17818;SDS011;9034;50.284;19.310;2022-10-16T00:07:13;106.72;;;55.50;;
17818;SDS011;9034;50.284;19.310;2022-10-16T00:08:17;92.03;;;49.72;;
17818;SDS011;9034;50.284;19.310;2022-10-16T00:09:19;73.03;;;40.50;;
17818;SDS011;9034;50.284;19.310;2022-10-16T00:10:23;64.45;;;36.92;;
17818;SDS011;9034;50.284;19.310;2022-10-16T00:11:29;45.08;;;28.23;;
17818;SDS011;9034;50.284;19.310;2022-10-16T00:12:35;36.63;;;24.13;;
17818;SDS011;9034;50.284;19.310;2022-10-16T00:13:40;41.42;;;25.83;;
17818;SDS011;9034;50.284;19.310;2022-10-16T00:14:45;42.90;;;27.27;;
17818;SDS011;9034;50.284;19.310;2022-10-16T00:15:48;42.00;;;27.58;;
17818;SDS011;9034;50.284;19.310;2022-10-16T00:16:52;42.78;;;25.52;;
17818;SDS011;9034;50.284;19.310;2022-10-16T00:17:55;44.30;;;27.08;;
17818;SDS011;9034;50.284;19.310;2022-10-16T00:18:59;40.67;;;25.77;;
17818;SDS011;9034;50.284;19.310;2022-10-16T00:20:02;41.40;;;24.48;;
17818;SDS011;9034;50.284;19.310;2022-10-16T00:21:10;37.28;;;24.42;;
17818;SDS011;9034;50.284;19.310;2022-10-16T00:22:15;35.85;;;22.73;;
17818;SDS011;9034;50.284;19.310;2022-10-16T00:23:19;34.38;;;22.63;;
17818;SDS011;9034;50.284;19.310;2022-10-16T00:24:22;34.65;;;23.30;;
17818;SDS011;9034;50.284;19.310;2022-10-16T00:27:04;30.63;;;21.63;;
17818;SDS011;9034;50.284;19.310;2022-10-16T00:28:27;36.25;;;23.00;;
17818;SDS011;9034;50.284;19.310;2022-10-16T00:29:33;32.03;;;22.27;;
17818;SDS011;9034;50.284;19.310;2022-10-16T00:30:37;32.00;;;21.08;;
17818;SDS011;9034;50.284;19.310;2022-10-16T00:31:41;28.42;;;20.30;;
17818;SDS011;9034;50.284;19.310;2022-10-16T00:32:45;32.20;;;20.85;;
17818;SDS011;9034;50.284;19.310;2022-10-16T00:33:49;34.85;;;21.40;;
17818;SDS011;9034;50.284;19.310;2022-10-16T00:34:53;32.97;;;20.77;;
17818;SDS011;9034;50.284;19.310;2022-10-16T00:35:57;32.10;;;20.65;;
17818;SDS011;9034;50.284;19.310;2022-10-16T00:37:02;34.70;;;22.38;;
17818;SDS011;9034;50.284;19.310;2022-10-16T00:38:05;35.13;;;21.92;;
17818;SDS011;9034;50.284;19.310;2022-10-16T00:39:09;33.38;;;21.65;;
17818;SDS011;9034;50.284;19.310;2022-10-16T00:40:12;32.65;;;20.40;;
17818;SDS011;9034;50.284;19.310;2022-10-16T00:41:17;33.08;;;21.17;;
17818;SDS011;9034;50.284;19.310;2022-10-16T00:42:21;33.13;;;20.23;;
17818;SDS011;9034;50.284;19.310;2022-10-16T00:43:33;30.35;;;20.30;;
17818;SDS011;9034;50.284;19.310;2022-10-16T00:44:44;29.85;;;20.10;;
17818;SDS011;9034;50.284;19.310;2022-10-16T00:45:50;31.10;;;20.40;;
17818;SDS011;9034;50.284;19.310;2022-10-16T00:46:53;30.67;;;20.45;;
17818;SDS011;9034;50.284;19.310;2022-10-16T00:47:57;31.15;;;19.92;;
17818;SDS011;9034;50.284;19.310;2022-10-16T00:49:01;27.73;;;19.25;;
17818;SDS011;9034;50.284;19.310;2022-10-16T00:50:09;29.33;;;18.20;;
17818;SDS011;9034;50.284;19.310;2022-10-16T00:51:13;29.02;;;20.10;;
17818;SDS011;9034;50.284;19.310;2022-10-16T00:52:18;29.52;;;19.35;;
17818;SDS011;9034;50.284;19.310;2022-10-16T00:53:21;26.80;;;19.17;;
17818;SDS011;9034;50.284;19.310;2022-10-16T00:54:26;28.88;;;19.98;;
17818;SDS011;9034;50.284;19.310;2022-10-16T00:55:30;25.00;;;18.65;;
17818;SDS011;9034;50.284;19.310;2022-10-16T00:56:37;27.65;;;17.85;;
17818;SDS011;9034;50.284;19.310;2022-10-16T00:57:40;25.75;;;18.65;;
17818;SDS011;9034;50.284;19.310;2022-10-16T00:58:45;26.58;;;18.80;;
17818;SDS011;9034;50.284;19.310;2022-10-16T00:59:50;29.20;;;18.85;;
17818;SDS011;9034;50.284;19.310;2022-10-16T01:00:55;27.98;;;18.77;;
17818;SDS011;9034;50.284;19.310;2022-10-16T01:01:58;32.80;;;18.63;;
17818;SDS011;9034;50.284;19.310;2022-10-16T01:04:26;26.40;;;17.55;;
17818;SDS011;9034;50.284;19.310;2022-10-16T01:05:33;25.02;;;18.55;;
17818;SDS011;9034;50.284;19.310;2022-10-16T01:06:44;29.17;;;18.23;;
17818;SDS011;9034;50.284;19.310;2022-10-16T01:07:51;26.05;;;18.85;;
17818;SDS011;9034;50.284;19.310;2022-10-16T01:09:02;25.73;;;18.23;;
17818;SDS011;9034;50.284;19.310;2022-10-16T01:10:13;26.38;;;18.40;;
17818;SDS011;9034;50.284;19.310;2022-10-16T01:11:22;26.85;;;18.70;;
17818;SDS011;9034;50.284;19.310;2022-10-16T01:12:32;26.60;;;18.60;;
17818;SDS011;9034;50.284;19.310;2022-10-16T01:13:42;27.00;;;18.90;;
17818;SDS011;9034;50.284;19.310;2022-10-16T01:14:53;32.05;;;19.98;;
17818;SDS011;9034;50.284;19.310;2022-10-16T01:15:59;30.15;;;19.90;;
17818;SDS011;9034;50.284;19.310;2022-10-16T01:17:07;28.73;;;18.80;;
17818;SDS011;9034;50.284;19.310;2022-10-16T01:18:14;28.65;;;19.73;;
17818;SDS011;9034;50.284;19.310;2022-10-16T01:19:26;29.92;;;20.02;;
17818;SDS011;9034;50.284;19.310;2022-10-16T01:20:35;31.60;;;21.25;;
17818;SDS011;9034;50.284;19.310;2022-10-16T01:21:42;31.55;;;21.58;;
17818;SDS011;9034;50.284;19.310;2022-10-16T01:22:50;27.33;;;20.38;;
17818;SDS011;9034;50.284;19.310;2022-10-16T01:24:03;28.42;;;21.33;;
17818;SDS011;9034;50.284;19.310;2022-10-16T01:25:12;29.48;;;20.45;;
17818;SDS011;9034;50.284;19.310;2022-10-16T01:26:30;30.33;;;20.85;;
17818;SDS011;9034;50.284;19.310;2022-10-16T01:27:39;34.83;;;21.52;;
17818;SDS011;9034;50.284;19.310;2022-10-16T01:28:45;34.08;;;22.08;;
17818;SDS011;9034;50.284;19.310;2022-10-16T01:29:52;32.85;;;21.63;;
17818;SDS011;9034;50.284;19.310;2022-10-16T01:30:58;34.92;;;21.23;;
17818;SDS011;9034;50.284;19.310;2022-10-16T01:32:02;36.42;;;22.08;;
17818;SDS011;9034;50.284;19.310;2022-10-16T01:33:14;33.72;;;21.75;;
17818;SDS011;9034;50.284;19.310;2022-10-16T01:34:20;30.00;;;20.27;;
17818;SDS011;9034;50.284;19.310;2022-10-16T01:35:27;29.00;;;19.85;;
17818;SDS011;9034;50.284;19.310;2022-10-16T01:36:35;28.55;;;19.63;;
17818;SDS011;9034;50.284;19.310;2022-10-16T01:37:41;26.83;;;19.40;;
17818;SDS011;9034;50.284;19.310;2022-10-16T01:38:49;33.25;;;20.45;;
17818;SDS011;9034;50.284;19.310;2022-10-16T01:39:55;31.30;;;21.10;;
17818;SDS011;9034;50.284;19.310;2022-10-16T01:41:02;29.38;;;19.98;;
17818;SDS011;9034;50.284;19.310;2022-10-16T01:42:09;30.02;;;20.23;;
17818;SDS011;9034;50.284;19.310;2022-10-16T01:43:17;30.38;;;20.67;;
17818;SDS011;9034;50.284;19.310;2022-10-16T01:44:24;31.63;;;20.85;;
17818;SDS011;9034;50.284;19.310;2022-10-16T01:45:28;28.23;;;19.73;;
17818;SDS011;9034;50.284;19.310;2022-10-16T01:46:34;28.77;;;19.75;;
17818;SDS011;9034;50.284;19.310;2022-10-16T01:47:38;27.40;;;19.02;;
17818;SDS011;9034;50.284;19.310;2022-10-16T01:48:43;28.23;;;20.33;;
17818;SDS011;9034;50.284;19.310;2022-10-16T01:49:46;28.58;;;19.77;;
17818;SDS011;9034;50.284;19.310;2022-10-16T01:50:52;28.75;;;19.58;;
17818;SDS011;9034;50.284;19.310;2022-10-16T01:51:58;27.95;;;19.85;;
17818;SDS011;9034;50.284;19.310;2022-10-16T01:53:03;27.80;;;20.65;;
17818;SDS011;9034;50.284;19.310;2022-10-16T01:54:08;28.33;;;19.95;;
17818;SDS011;9034;50.284;19.310;2022-10-16T01:55:14;28.50;;;20.52;;
17818;SDS011;9034;50.284;19.310;2022-10-16T01:56:18;25.08;;;19.02;;
17818;SDS011;9034;50.284;19.310;2022-10-16T01:57:24;30.58;;;19.60;;
17818;SDS011;9034;50.284;19.310;2022-10-16T01:58:32;28.98;;;20.20;;
17818;SDS011;9034;50.284;19.310;2022-10-16T01:59:39;27.45;;;19.58;;
17818;SDS011;9034;50.284;19.310;2022-10-16T02:00:44;26.05;;;18.25;;
17818;SDS011;9034;50.284;19.310;2022-10-16T02:01:50;27.55;;;20.05;;
17818;SDS011;9034;50.284;19.310;2022-10-16T02:02:57;28.73;;;19.83;;
17818;SDS011;9034;50.284;19.310;2022-10-16T02:04:03;29.60;;;19.40;;
17818;SDS011;9034;50.284;19.310;2022-10-16T02:05:14;26.08;;;18.55;;
17818;SDS011;9034;50.284;19.310;2022-10-16T02:06:21;29.73;;;19.50;;
17818;SDS011;9034;50.284;19.310;2022-10-16T02:07:25;29.17;;;20.10;;
17818;SDS011;9034;50.284;19.310;2022-10-16T02:08:29;31.60;;;20.40;;
17818;SDS011;9034;50.284;19.310;2022-10-16T02:09:33;28.75;;;20.20;;
17818;SDS011;9034;50.284;19.310;2022-10-16T02:10:38;27.05;;;19.30;;
17818;SDS011;9034;50.284;19.310;2022-10-16T02:11:42;29.63;;;21.23;;
17818;SDS011;9034;50.284;19.310;2022-10-16T02:12:47;32.05;;;20.55;;
17818;SDS011;9034;50.284;19.310;2022-10-16T02:13:55;27.48;;;18.88;;
17818;SDS011;9034;50.284;19.310;2022-10-16T02:15:02;26.50;;;18.55;;
17818;SDS011;9034;50.284;19.310;2022-10-16T02:16:06;27.92;;;17.85;;
17818;SDS011;9034;50.284;19.310;2022-10-16T02:17:14;33.55;;;20.08;;
17818;SDS011;9034;50.284;19.310;2022-10-16T02:18:18;25.02;;;18.88;;
17818;SDS011;9034;50.284;19.310;2022-10-16T02:19:23;28.77;;;18.98;;
17818;SDS011;9034;50.284;19.310;2022-10-16T02:20:27;26.65;;;19.98;;
17818;SDS011;9034;50.284;19.310;2022-10-16T02:21:33;28.70;;;19.60;;
17818;SDS011;9034;50.284;19.310;2022-10-16T02:22:43;26.95;;;19.95;;
17818;SDS011;9034;50.284;19.310;2022-10-16T02:23:50;30.52;;;20.05;;
17818;SDS011;9034;50.284;19.310;2022-10-16T02:24:59;28.38;;;19.17;;
17818;SDS011;9034;50.284;19.310;2022-10-16T02:26:04;28.75;;;19.83;;
17818;SDS011;9034;50.284;19.310;2022-10-16T02:27:11;29.45;;;19.60;;
17818;SDS011;9034;50.284;19.310;2022-10-16T02:28:19;25.90;;;18.83;;
17818;SDS011;9034;50.284;19.310;2022-10-16T02:29:28;25.60;;;18.45;;
17818;SDS011;9034;50.284;19.310;2022-10-16T02:30:33;25.35;;;18.50;;
17818;SDS011;9034;50.284;19.310;2022-10-16T02:31:41;30.15;;;19.00;;
17818;SDS011;9034;50.284;19.310;2022-10-16T02:32:46;23.60;;;18.85;;
17818;SDS011;9034;50.284;19.310;2022-10-16T02:33:51;29.23;;;20.95;;
17818;SDS011;9034;50.284;19.310;2022-10-16T02:34:56;29.17;;;20.20;;
17818;SDS011;9034;50.284;19.310;2022-10-16T02:36:01;31.27;;;20.70;;
17818;SDS011;9034;50.284;19.310;2022-10-16T02:37:04;24.63;;;17.98;;
17818;SDS011;9034;50.284;19.310;2022-10-16T02:38:08;25.88;;;18.33;;
17818;SDS011;9034;50.284;19.310;2022-10-16T02:39:13;28.88;;;19.20;;
17818;SDS011;9034;50.284;19.310;2022-10-16T02:40:18;27.95;;;19.95;;
17818;SDS011;9034;50.284;19.310;2022-10-16T02:41:26;25.80;;;18.70;;
17818;SDS011;9034;50.284;19.310;2022-10-16T02:42:33;27.30;;;19.23;;
17818;SDS011;9034;50.284;19.310;2022-10-16T02:43:36;24.65;;;17.35;;
17818;SDS011;9034;50.284;19.310;2022-10-16T02:44:42;23.25;;;17.55;;
17818;SDS011;9034;50.284;19.310;2022-10-16T02:45:45;25.67;;;17.33;;
17818;SDS011;9034;50.284;19.310;2022-10-16T02:46:49;26.50;;;17.60;;
17818;SDS011;9034;50.284;19.310;2022-10-16T02:47:52;27.63;;;19.95;;
17818;SDS011;9034;50.284;19.310;2022-10-16T02:48:56;30.92;;;19.65;;
17818;SDS011;9034;50.284;19.310;2022-10-16T02:49:59;24.33;;;18.10;;
17818;SDS011;9034;50.284;19.310;2022-10-16T02:51:03;21.10;;;17.30;;
17818;SDS011;9034;50.284;19.310;2022-10-16T02:52:07;22.52;;;15.93;;
17818;SDS011;9034;50.284;19.310;2022-10-16T02:53:11;21.23;;;15.43;;
17818;SDS011;9034;50.284;19.310;2022-10-16T02:54:14;25.90;;;17.08;;
17818;SDS011;9034;50.284;19.310;2022-10-16T02:55:18;34.08;;;19.40;;
17818;SDS011;9034;50.284;19.310;2022-10-16T02:56:21;24.30;;;17.70;;
17818;SDS011;9034;50.284;19.310;2022-10-16T02:57:26;26.58;;;16.85;;
17818;SDS011;9034;50.284;19.310;2022-10-16T02:58:29;22.27;;;17.30;;
17818;SDS011;9034;50.284;19.310;2022-10-16T02:59:35;22.33;;;17.02;;
17818;SDS011;9034;50.284;19.310;2022-10-16T03:00:40;31.70;;;18.83;;
17818;SDS011;9034;50.284;19.310;2022-10-16T03:01:44;23.55;;;17.90;;
17818;SDS011;9034;50.284;19.310;2022-10-16T03:02:47;24.35;;;17.02;;
17818;SDS011;9034;50.284;19.310;2022-10-16T03:03:53;23.52;;;17.25;;
17818;SDS011;9034;50.284;19.310;2022-10-16T03:04:59;21.58;;;16.77;;
17818;SDS011;9034;50.284;19.310;2022-10-16T03:06:03;21.42;;;16.40;;
17818;SDS011;9034;50.284;19.310;2022-10-16T03:07:08;22.50;;;17.35;;
17818;SDS011;9034;50.284;19.310;2022-10-16T03:08:14;21.65;;;17.08;;
17818;SDS011;9034;50.284;19.310;2022-10-16T03:09:18;25.90;;;19.15;;
17818;SDS011;9034;50.284;19.310;2022-10-16T03:10:22;23.05;;;16.90;;
17818;SDS011;9034;50.284;19.310;2022-10-16T03:11:24;22.33;;;17.05;;
17818;SDS011;9034;50.284;19.310;2022-10-16T03:12:28;21.90;;;17.88;;
17818;SDS011;9034;50.284;19.310;2022-10-16T03:13:32;23.10;;;16.63;;
17818;SDS011;9034;50.284;19.310;2022-10-16T03:14:36;23.25;;;17.08;;
17818;SDS011;9034;50.284;19.310;2022-10-16T03:15:40;21.90;;;16.55;;
17818;SDS011;9034;50.284;19.310;2022-10-16T03:16:44;24.40;;;17.88;;
17818;SDS011;9034;50.284;19.310;2022-10-16T03:17:47;24.27;;;18.10;;
17818;SDS011;9034;50.284;19.310;2022-10-16T03:18:52;36.13;;;19.05;;
17818;SDS011;9034;50.284;19.310;2022-10-16T03:19:55;37.65;;;18.73;;
17818;SDS011;9034;50.284;19.310;2022-10-16T03:20:59;41.65;;;17.27;;
17818;SDS011;9034;50.284;19.310;2022-10-16T03:22:02;22.92;;;16.65;;
17818;SDS011;9034;50.284;19.310;2022-10-16T03:23:06;19.77;;;15.23;;
17818;SDS011;9034;50.284;19.310;2022-10-16T03:24:10;17.27;;;13.23;;
17818;SDS011;9034;50.284;19.310;2022-10-16T03:25:14;17.45;;;14.25;;
17818;SDS011;9034;50.284;19.310;2022-10-16T03:26:17;22.52;;;17.42;;
17818;SDS011;9034;50.284;19.310;2022-10-16T03:27:21;22.35;;;16.58;;
17818;SDS011;9034;50.284;19.310;2022-10-16T03:28:25;21.33;;;15.65;;
17818;SDS011;9034;50.284;19.310;2022-10-16T03:29:30;22.58;;;17.05;;
17818;SDS011;9034;50.284;19.310;2022-10-16T03:30:34;27.38;;;18.55;;
17818;SDS011;9034;50.284;19.310;2022-10-16T03:31:39;28.58;;;18.90;;
17818;SDS011;9034;50.284;19.310;2022-10-16T03:32:43;28.95;;;19.60;;
17818;SDS011;9034;50.284;19.310;2022-10-16T03:33:47;24.08;;;18.88;;
17818;SDS011;9034;50.284;19.310;2022-10-16T03:34:50;24.35;;;19.05;;
17818;SDS011;9034;50.284;19.310;2022-10-16T03:35:56;25.45;;;18.08;;
17818;SDS011;9034;50.284;19.310;2022-10-16T03:37:00;38.95;;;19.63;;
17818;SDS011;9034;50.284;19.310;2022-10-16T03:38:04;19.15;;;14.10;;
17818;SDS011;9034;50.284;19.310;2022-10-16T03:39:07;25.33;;;18.80;;
17818;SDS011;9034;50.284;19.310;2022-10-16T03:40:11;28.08;;;18.70;;
17818;SDS011;9034;50.284;19.310;2022-10-16T03:41:15;26.25;;;18.52;;
17818;SDS011;9034;50.284;19.310;2022-10-16T03:42:19;26.95;;;20.23;;
17818;SDS011;9034;50.284;19.310;2022-10-16T03:43:22;24.67;;;18.17;;
17818;SDS011;9034;50.284;19.310;2022-10-16T03:44:26;31.13;;;20.85;;
17818;SDS011;9034;50.284;19.310;2022-10-16T03:45:29;72.57;;;24.15;;
17818;SDS011;9034;50.284;19.310;2022-10-16T03:46:33;31.33;;;20.48;;
17818;SDS011;9034;50.284;19.310;2022-10-16T03:47:37;29.27;;;17.73;;
17818;SDS011;9034;50.284;19.310;2022-10-16T03:48:41;25.48;;;17.25;;
17818;SDS011;9034;50.284;19.310;2022-10-16T03:49:44;22.67;;;17.63;;
17818;SDS011;9034;50.284;19.310;2022-10-16T03:50:48;27.92;;;19.83;;
17818;SDS011;9034;50.284;19.310;2022-10-16T03:51:52;28.80;;;17.73;;
17818;SDS011;9034;50.284;19.310;2022-10-16T03:52:56;24.13;;;17.90;;
17818;SDS011;9034;50.284;19.310;2022-10-16T03:54:00;26.83;;;19.25;;
17818;SDS011;9034;50.284;19.310;2022-10-16T03:55:04;26.48;;;17.70;;
17818;SDS011;9034;50.284;19.310;2022-10-16T03:56:07;24.48;;;17.48;;
17818;SDS011;9034;50.284;19.310;2022-10-16T03:57:11;24.13;;;17.50;;
17818;SDS011;9034;50.284;19.310;2022-10-16T03:58:14;27.38;;;19.23;;
17818;SDS011;9034;50.284;19.310;2022-10-16T03:59:19;24.25;;;17.98;;
17818;SDS011;9034;50.284;19.310;2022-10-16T04:00:21;24.02;;;16.83;;
17818;SDS011;9034;50.284;19.310;2022-10-16T04:01:25;69.38;;;21.50;;
17818;SDS011;9034;50.284;19.310;2022-10-16T04:02:29;141.45;;;23.00;;
17818;SDS011;9034;50.284;19.310;2022-10-16T04:03:34;53.85;;;21.50;;
17818;SDS011;9034;50.284;19.310;2022-10-16T04:04:37;28.98;;;20.20;;
17818;SDS011;9034;50.284;19.310;2022-10-16T04:05:41;24.60;;;17.60;;
17818;SDS011;9034;50.284;19.310;2022-10-16T04:06:47;23.58;;;16.83;;
17818;SDS011;9034;50.284;19.310;2022-10-16T04:07:52;24.48;;;17.15;;
17818;SDS011;9034;50.284;19.310;2022-10-16T04:08:55;69.95;;;21.98;;
17818;SDS011;9034;50.284;19.310;2022-10-16T04:09:59;27.77;;;18.90;;
17818;SDS011;9034;50.284;19.310;2022-10-16T04:11:02;25.05;;;17.55;;
17818;SDS011;9034;50.284;19.310;2022-10-16T04:12:06;23.23;;;16.75;;
17818;SDS011;9034;50.284;19.310;2022-10-16T04:13:11;23.13;;;17.23;;
17818;SDS011;9034;50.284;19.310;2022-10-16T04:14:14;31.70;;;18.52;;
17818;SDS011;9034;50.284;19.310;2022-10-16T04:15:18;22.30;;;16.48;;
17818;SDS011;9034;50.284;19.310;2022-10-16T04:16:21;22.48;;;15.82;;
17818;SDS011;9034;50.284;19.310;2022-10-16T04:17:25;23.77;;;16.52;;
17818;SDS011;9034;50.284;19.310;2022-10-16T04:18:28;39.75;;;18.58;;
17818;SDS011;9034;50.284;19.310;2022-10-16T04:19:34;62.97;;;18.50;;
17818;SDS011;9034;50.284;19.310;2022-10-16T04:20:37;39.53;;;15.20;;
17818;SDS011;9034;50.284;19.310;2022-10-16T04:21:41;37.55;;;14.70;;
17818;SDS011;9034;50.284;19.310;2022-10-16T04:22:44;19.42;;;13.98;;
17818;SDS011;9034;50.284;19.310;2022-10-16T04:23:48;18.95;;;12.88;;
17818;SDS011;9034;50.284;19.310;2022-10-16T04:24:51;32.95;;;13.77;;
17818;SDS011;9034;50.284;19.310;2022-10-16T04:25:55;21.33;;;14.27;;
17818;SDS011;9034;50.284;19.310;2022-10-16T04:26:58;52.67;;;15.40;;
17818;SDS011;9034;50.284;19.310;2022-10-16T04:28:03;64.75;;;17.15;;
17818;SDS011;9034;50.284;19.310;2022-10-16T04:29:06;15.88;;;12.90;;
17818;SDS011;9034;50.284;19.310;2022-10-16T04:30:10;18.02;;;13.27;;
17818;SDS011;9034;50.284;19.310;2022-10-16T04:31:13;19.17;;;14.43;;
17818;SDS011;9034;50.284;19.310;2022-10-16T04:32:18;35.25;;;15.70;;
17818;SDS011;9034;50.284;19.310;2022-10-16T04:33:22;31.02;;;16.58;;
17818;SDS011;9034;50.284;19.310;2022-10-16T04:34:27;22.00;;;15.15;;
17818;SDS011;9034;50.284;19.310;2022-10-16T04:35:33;29.52;;;15.65;;
17818;SDS011;9034;50.284;19.310;2022-10-16T04:36:39;22.58;;;15.10;;
17818;SDS011;9034;50.284;19.310;2022-10-16T04:37:42;18.75;;;15.77;;
17818;SDS011;9034;50.284;19.310;2022-10-16T04:38:46;21.95;;;16.20;;
17818;SDS011;9034;50.284;19.310;2022-10-16T04:39:49;31.65;;;18.00;;
17818;SDS011;9034;50.284;19.310;2022-10-16T04:40:55;23.92;;;16.88;;
17818;SDS011;9034;50.284;19.310;2022-10-16T04:41:58;22.13;;;15.57;;
17818;SDS011;9034;50.284;19.310;2022-10-16T04:43:02;21.35;;;15.13;;
17818;SDS011;9034;50.284;19.310;2022-10-16T04:44:06;21.60;;;16.05;;
17818;SDS011;9034;50.284;19.310;2022-10-16T04:45:10;31.48;;;17.50;;
17818;SDS011;9034;50.284;19.310;2022-10-16T04:46:18;94.93;;;23.63;;
17818;SDS011;9034;50.284;19.310;2022-10-16T04:47:22;72.53;;;17.98;;
17818;SDS011;9034;50.284;19.310;2022-10-16T04:48:26;24.50;;;16.13;;
17818;SDS011;9034;50.284;19.310;2022-10-16T04:49:30;27.85;;;18.67;;
17818;SDS011;9034;50.284;19.310;2022-10-16T04:50:34;21.80;;;15.38;;
17818;SDS011;9034;50.284;19.310;2022-10-16T04:51:41;23.52;;;18.40;;
17818;SDS011;9034;50.284;19.310;2022-10-16T04:52:44;27.67;;;15.95;;
17818;SDS011;9034;50.284;19.310;2022-10-16T04:53:48;22.15;;;16.42;;
17818;SDS011;9034;50.284;19.310;2022-10-16T04:54:51;27.50;;;17.50;;
17818;SDS011;9034;50.284;19.310;2022-10-16T04:55:56;24.98;;;17.50;;
17818;SDS011;9034;50.284;19.310;2022-10-16T04:56:59;21.85;;;15.70;;
17818;SDS011;9034;50.284;19.310;2022-10-16T04:58:03;30.92;;;16.90;;
17818;SDS011;9034;50.284;19.310;2022-10-16T04:59:06;17.35;;;14.43;;
17818;SDS011;9034;50.284;19.310;2022-10-16T05:00:10;23.42;;;17.35;;
17818;SDS011;9034;50.284;19.310;2022-10-16T05:01:14;21.45;;;17.33;;
17818;SDS011;9034;50.284;19.310;2022-10-16T05:02:19;21.00;;;16.67;;
17818;SDS011;9034;50.284;19.310;2022-10-16T05:03:22;20.33;;;16.23;;
17818;SDS011;9034;50.284;19.310;2022-10-16T05:04:26;21.92;;;15.70;;
17818;SDS011;9034;50.284;19.310;2022-10-16T05:05:29;22.33;;;16.50;;
17818;SDS011;9034;50.284;19.310;2022-10-16T05:06:34;23.88;;;17.20;;
17818;SDS011;9034;50.284;19.310;2022-10-16T05:07:37;56.42;;;22.65;;
17818;SDS011;9034;50.284;19.310;2022-10-16T05:08:41;43.72;;;18.38;;
17818;SDS011;9034;50.284;19.310;2022-10-16T05:09:44;56.22;;;20.95;;
17818;SDS011;9034;50.284;19.310;2022-10-16T05:10:48;32.90;;;18.98;;
17818;SDS011;9034;50.284;19.310;2022-10-16T05:11:51;26.13;;;19.55;;
17818;SDS011;9034;50.284;19.310;2022-10-16T05:12:55;36.33;;;20.42;;
17818;SDS011;9034;50.284;19.310;2022-10-16T05:13:58;37.28;;;22.60;;
17818;SDS011;9034;50.284;19.310;2022-10-16T05:15:02;67.82;;;24.35;;
17818;SDS011;9034;50.284;19.310;2022-10-16T05:16:06;34.30;;;21.67;;
17818;SDS011;9034;50.284;19.310;2022-10-16T05:17:10;24.05;;;18.10;;
17818;SDS011;9034;50.284;19.310;2022-10-16T05:18:13;27.80;;;20.02;;
17818;SDS011;9034;50.284;19.310;2022-10-16T05:19:18;28.48;;;20.05;;
17818;SDS011;9034;50.284;19.310;2022-10-16T05:20:28;26.98;;;19.90;;
17818;SDS011;9034;50.284;19.310;2022-10-16T05:21:34;34.85;;;22.55;;
17818;SDS011;9034;50.284;19.310;2022-10-16T05:22:37;29.98;;;22.52;;
17818;SDS011;9034;50.284;19.310;2022-10-16T05:23:41;30.85;;;22.65;;
17818;SDS011;9034;50.284;19.310;2022-10-16T05:24:44;32.15;;;22.42;;
17818;SDS011;9034;50.284;19.310;2022-10-16T05:25:52;33.25;;;24.33;;
17818;SDS011;9034;50.284;19.310;2022-10-16T05:26:56;36.20;;;25.83;;
17818;SDS011;9034;50.284;19.310;2022-10-16T05:28:00;34.63;;;24.67;;
17818;SDS011;9034;50.284;19.310;2022-10-16T05:29:03;38.17;;;25.45;;
17818;SDS011;9034;50.284;19.310;2022-10-16T05:30:08;32.45;;;24.00;;
17818;SDS011;9034;50.284;19.310;2022-10-16T05:31:13;37.33;;;26.27;;
17818;SDS011;9034;50.284;19.310;2022-10-16T05:32:17;40.00;;;27.33;;
17818;SDS011;9034;50.284;19.310;2022-10-16T05:33:22;44.90;;;29.27;;
17818;SDS011;9034;50.284;19.310;2022-10-16T05:34:26;36.00;;;27.13;;
17818;SDS011;9034;50.284;19.310;2022-10-16T05:35:30;37.00;;;27.38;;
17818;SDS011;9034;50.284;19.310;2022-10-16T05:36:34;32.33;;;26.05;;
17818;SDS011;9034;50.284;19.310;2022-10-16T05:37:38;36.10;;;27.42;;
17818;SDS011;9034;50.284;19.310;2022-10-16T05:38:41;30.73;;;24.63;;
17818;SDS011;9034;50.284;19.310;2022-10-16T05:39:45;34.33;;;24.60;;
17818;SDS011;9034;50.284;19.310;2022-10-16T05:40:51;34.15;;;24.67;;
17818;SDS011;9034;50.284;19.310;2022-10-16T05:41:55;32.72;;;23.88;;
17818;SDS011;9034;50.284;19.310;2022-10-16T05:42:58;30.55;;;24.27;;
17818;SDS011;9034;50.284;19.310;2022-10-16T05:44:03;31.20;;;23.38;;
17818;SDS011;9034;50.284;19.310;2022-10-16T05:45:08;30.50;;;23.00;;
17818;SDS011;9034;50.284;19.310;2022-10-16T05:46:13;30.50;;;22.85;;
17818;SDS011;9034;50.284;19.310;2022-10-16T05:47:16;30.88;;;21.33;;
17818;SDS011;9034;50.284;19.310;2022-10-16T05:48:20;28.27;;;21.75;;
17818;SDS011;9034;50.284;19.310;2022-10-16T05:49:23;28.90;;;22.20;;
17818;SDS011;9034;50.284;19.310;2022-10-16T05:50:27;28.80;;;21.35;;
17818;SDS011;9034;50.284;19.310;2022-10-16T05:51:30;26.08;;;20.45;;
17818;SDS011;9034;50.284;19.310;2022-10-16T05:52:35;28.15;;;21.02;;
17818;SDS011;9034;50.284;19.310;2022-10-16T05:53:39;28.20;;;20.30;;
17818;SDS011;9034;50.284;19.310;2022-10-16T05:54:48;25.88;;;19.27;;
17818;SDS011;9034;50.284;19.310;2022-10-16T05:55:53;24.80;;;19.77;;
17818;SDS011;9034;50.284;19.310;2022-10-16T05:56:56;26.20;;;18.95;;
17818;SDS011;9034;50.284;19.310;2022-10-16T05:58:00;24.15;;;18.40;;
17818;SDS011;9034;50.284;19.310;2022-10-16T05:59:03;28.70;;;17.83;;
17818;SDS011;9034;50.284;19.310;2022-10-16T06:00:07;22.15;;;17.88;;
17818;SDS011;9034;50.284;19.310;2022-10-16T06:01:15;23.30;;;17.73;;
17818;SDS011;9034;50.284;19.310;2022-10-16T06:02:20;24.30;;;17.60;;
17818;SDS011;9034;50.284;19.310;2022-10-16T06:03:23;24.48;;;17.65;;
17818;SDS011;9034;50.284;19.310;2022-10-16T06:04:27;25.67;;;17.42;;
17818;SDS011;9034;50.284;19.310;2022-10-16T06:05:30;25.13;;;18.42;;
17818;SDS011;9034;50.284;19.310;2022-10-16T06:06:34;26.00;;;17.83;;
17818;SDS011;9034;50.284;19.310;2022-10-16T06:07:39;20.05;;;17.13;;
17818;SDS011;9034;50.284;19.310;2022-10-16T06:08:44;22.95;;;17.13;;
17818;SDS011;9034;50.284;19.310;2022-10-16T06:09:48;21.08;;;17.70;;
17818;SDS011;9034;50.284;19.310;2022-10-16T06:11:00;22.65;;;17.65;;
17818;SDS011;9034;50.284;19.310;2022-10-16T06:12:03;23.65;;;17.70;;
17818;SDS011;9034;50.284;19.310;2022-10-16T06:13:07;26.05;;;19.17;;
17818;SDS011;9034;50.284;19.310;2022-10-16T06:14:10;24.52;;;18.60;;
17818;SDS011;9034;50.284;19.310;2022-10-16T06:15:14;25.05;;;18.45;;
17818;SDS011;9034;50.284;19.310;2022-10-16T06:16:17;23.25;;;19.00;;
17818;SDS011;9034;50.284;19.310;2022-10-16T06:17:21;25.15;;;19.35;;
17818;SDS011;9034;50.284;19.310;2022-10-16T06:18:24;21.73;;;18.73;;
17818;SDS011;9034;50.284;19.310;2022-10-16T06:19:29;26.80;;;18.90;;
17818;SDS011;9034;50.284;19.310;2022-10-16T06:20:33;25.90;;;19.83;;
17818;SDS011;9034;50.284;19.310;2022-10-16T06:21:36;24.52;;;17.58;;
17818;SDS011;9034;50.284;19.310;2022-10-16T06:22:42;26.52;;;18.70;;